sensor_id;sensor_type;location;lat;lon;timestamp;P1;durP1;ratioP1;P2;durP2;ratioP2
41233;SDS011;26968;42.686;23.352;2023-09-30T00:00:57;26.30;;;8.77;;
41233;SDS011;26968;42.686;23.352;2023-09-30T00:03:23;36.63;;;9.60;;
41233;SDS011;26968;42.686;23.352;2023-09-30T00:05:49;25.40;;;8.13;;
41233;SDS011;26968;42.686;23.352;2023-09-30T00:08:14;24.02;;;8.50;;
41233;SDS011;26968;42.686;23.352;2023-09-30T00:10:40;24.33;;;8.10;;
41233;SDS011;26968;42.686;23.352;2023-09-30T00:13:05;25.27;;;9.25;;
41233;SDS011;26968;42.686;23.352;2023-09-30T00:15:32;30.67;;;9.05;;
41233;SDS011;26968;42.686;23.352;2023-09-30T00:17:58;22.05;;;8.07;;
41233;SDS011;26968;42.686;23.352;2023-09-30T00:20:24;21.15;;;9.25;;
41233;SDS011;26968;42.686;23.352;2023-09-30T00:22:49;24.90;;;9.07;;
41233;SDS011;26968;42.686;23.352;2023-09-30T00:25:15;32.83;;;9.13;;
41233;SDS011;26968;42.686;23.352;2023-09-30T00:27:40;21.30;;;8.07;;
41233;SDS011;26968;42.686;23.352;2023-09-30T00:30:06;20.98;;;8.02;;
41233;SDS011;26968;42.686;23.352;2023-09-30T00:32:32;23.77;;;9.18;;
41233;SDS011;26968;42.686;23.352;2023-09-30T00:34:58;17.75;;;8.35;;
41233;SDS011;26968;42.686;23.352;2023-09-30T00:37:25;17.65;;;8.70;;
41233;SDS011;26968;42.686;23.352;2023-09-30T00:39:52;19.25;;;8.23;;
41233;SDS011;26968;42.686;23.352;2023-09-30T00:42:18;26.52;;;9.02;;
41233;SDS011;26968;42.686;23.352;2023-09-30T00:44:45;25.75;;;8.27;;
41233;SDS011;26968;42.686;23.352;2023-09-30T00:47:11;21.05;;;8.35;;
41233;SDS011;26968;42.686;23.352;2023-09-30T00:49:37;16.52;;;8.43;;
41233;SDS011;26968;42.686;23.352;2023-09-30T00:52:03;21.60;;;8.63;;
41233;SDS011;26968;42.686;23.352;2023-09-30T00:54:29;24.98;;;9.38;;
41233;SDS011;26968;42.686;23.352;2023-09-30T00:56:56;21.02;;;8.90;;
41233;SDS011;26968;42.686;23.352;2023-09-30T00:59:22;32.25;;;8.75;;
41233;SDS011;26968;42.686;23.352;2023-09-30T01:01:51;26.75;;;9.50;;
41233;SDS011;26968;42.686;23.352;2023-09-30T01:04:19;24.27;;;8.65;;
41233;SDS011;26968;42.686;23.352;2023-09-30T01:06:46;27.33;;;9.63;;
41233;SDS011;26968;42.686;23.352;2023-09-30T01:09:12;21.17;;;9.23;;
41233;SDS011;26968;42.686;23.352;2023-09-30T01:11:39;29.85;;;9.25;;
41233;SDS011;26968;42.686;23.352;2023-09-30T01:14:23;24.88;;;8.90;;
41233;SDS011;26968;42.686;23.352;2023-09-30T01:16:52;21.73;;;8.93;;
41233;SDS011;26968;42.686;23.352;2023-09-30T01:19:18;21.20;;;8.60;;
41233;SDS011;26968;42.686;23.352;2023-09-30T01:21:43;23.05;;;9.32;;
41233;SDS011;26968;42.686;23.352;2023-09-30T01:24:13;18.85;;;8.48;;
41233;SDS011;26968;42.686;23.352;2023-09-30T01:26:41;18.02;;;8.48;;
41233;SDS011;26968;42.686;23.352;2023-09-30T01:29:10;24.52;;;8.80;;
41233;SDS011;26968;42.686;23.352;2023-09-30T01:31:38;26.58;;;8.48;;
41233;SDS011;26968;42.686;23.352;2023-09-30T01:34:04;25.92;;;7.50;;
41233;SDS011;26968;42.686;23.352;2023-09-30T01:36:30;22.98;;;8.73;;
41233;SDS011;26968;42.686;23.352;2023-09-30T01:38:56;22.63;;;8.63;;
41233;SDS011;26968;42.686;23.352;2023-09-30T01:41:22;22.13;;;9.98;;
41233;SDS011;26968;42.686;23.352;2023-09-30T01:43:48;26.65;;;9.13;;
41233;SDS011;26968;42.686;23.352;2023-09-30T01:46:13;21.52;;;8.30;;
41233;SDS011;26968;42.686;23.352;2023-09-30T01:48:39;23.85;;;8.77;;
41233;SDS011;26968;42.686;23.352;2023-09-30T01:51:04;24.98;;;8.45;;
41233;SDS011;26968;42.686;23.352;2023-09-30T01:53:31;22.98;;;8.15;;
41233;SDS011;26968;42.686;23.352;2023-09-30T01:55:57;19.00;;;8.90;;
41233;SDS011;26968;42.686;23.352;2023-09-30T01:58:22;17.17;;;7.82;;
41233;SDS011;26968;42.686;23.352;2023-09-30T02:00:48;25.30;;;8.38;;
41233;SDS011;26968;42.686;23.352;2023-09-30T02:03:13;20.08;;;7.82;;
41233;SDS011;26968;42.686;23.352;2023-09-30T02:05:39;21.02;;;7.65;;
41233;SDS011;26968;42.686;23.352;2023-09-30T02:08:05;22.20;;;8.13;;
41233;SDS011;26968;42.686;23.352;2023-09-30T02:10:31;21.20;;;7.78;;
41233;SDS011;26968;42.686;23.352;2023-09-30T02:13:00;32.47;;;9.52;;
41233;SDS011;26968;42.686;23.352;2023-09-30T02:15:26;26.60;;;8.05;;
41233;SDS011;26968;42.686;23.352;2023-09-30T02:17:52;17.98;;;7.25;;
41233;SDS011;26968;42.686;23.352;2023-09-30T02:20:17;15.60;;;7.18;;
41233;SDS011;26968;42.686;23.352;2023-09-30T02:22:50;23.05;;;8.35;;
41233;SDS011;26968;42.686;23.352;2023-09-30T02:25:17;13.98;;;7.57;;
41233;SDS011;26968;42.686;23.352;2023-09-30T02:27:43;16.10;;;7.38;;
41233;SDS011;26968;42.686;23.352;2023-09-30T02:30:09;22.55;;;7.38;;
41233;SDS011;26968;42.686;23.352;2023-09-30T02:32:37;20.48;;;7.53;;
41233;SDS011;26968;42.686;23.352;2023-09-30T02:35:04;17.88;;;7.75;;
41233;SDS011;26968;42.686;23.352;2023-09-30T02:37:31;18.13;;;8.25;;
41233;SDS011;26968;42.686;23.352;2023-09-30T02:40:00;15.40;;;7.10;;
41233;SDS011;26968;42.686;23.352;2023-09-30T02:42:30;25.23;;;6.95;;
41233;SDS011;26968;42.686;23.352;2023-09-30T02:44:56;21.90;;;7.03;;
41233;SDS011;26968;42.686;23.352;2023-09-30T02:47:24;22.27;;;7.07;;
41233;SDS011;26968;42.686;23.352;2023-09-30T02:49:49;18.15;;;7.60;;
41233;SDS011;26968;42.686;23.352;2023-09-30T02:52:15;22.42;;;6.90;;
41233;SDS011;26968;42.686;23.352;2023-09-30T02:54:40;14.70;;;6.93;;
41233;SDS011;26968;42.686;23.352;2023-09-30T02:57:06;20.17;;;7.03;;
41233;SDS011;26968;42.686;23.352;2023-09-30T02:59:34;16.65;;;6.40;;
41233;SDS011;26968;42.686;23.352;2023-09-30T03:02:01;19.60;;;6.65;;
41233;SDS011;26968;42.686;23.352;2023-09-30T03:04:28;19.85;;;6.53;;
41233;SDS011;26968;42.686;23.352;2023-09-30T03:06:53;29.27;;;7.75;;
41233;SDS011;26968;42.686;23.352;2023-09-30T03:09:21;17.38;;;6.55;;
41233;SDS011;26968;42.686;23.352;2023-09-30T03:11:47;23.13;;;7.47;;
41233;SDS011;26968;42.686;23.352;2023-09-30T03:14:13;18.58;;;6.78;;
41233;SDS011;26968;42.686;23.352;2023-09-30T03:16:39;20.60;;;7.43;;
41233;SDS011;26968;42.686;23.352;2023-09-30T03:19:06;21.60;;;8.30;;
41233;SDS011;26968;42.686;23.352;2023-09-30T03:21:33;15.43;;;7.63;;
41233;SDS011;26968;42.686;23.352;2023-09-30T03:24:00;18.05;;;7.28;;
41233;SDS011;26968;42.686;23.352;2023-09-30T03:26:29;18.60;;;6.88;;
41233;SDS011;26968;42.686;23.352;2023-09-30T03:28:55;19.10;;;7.15;;
41233;SDS011;26968;42.686;23.352;2023-09-30T03:31:21;23.67;;;8.50;;
41233;SDS011;26968;42.686;23.352;2023-09-30T03:33:48;20.35;;;7.60;;
41233;SDS011;26968;42.686;23.352;2023-09-30T03:36:16;33.30;;;8.23;;
41233;SDS011;26968;42.686;23.352;2023-09-30T03:38:43;15.27;;;7.20;;
41233;SDS011;26968;42.686;23.352;2023-09-30T03:41:09;16.10;;;7.65;;
41233;SDS011;26968;42.686;23.352;2023-09-30T03:43:35;22.20;;;7.97;;
41233;SDS011;26968;42.686;23.352;2023-09-30T03:46:05;25.67;;;7.88;;
41233;SDS011;26968;42.686;23.352;2023-09-30T03:48:31;16.33;;;7.07;;
41233;SDS011;26968;42.686;23.352;2023-09-30T03:50:57;26.45;;;7.55;;
41233;SDS011;26968;42.686;23.352;2023-09-30T03:53:22;15.82;;;7.78;;
41233;SDS011;26968;42.686;23.352;2023-09-30T03:55:51;19.95;;;8.07;;
41233;SDS011;26968;42.686;23.352;2023-09-30T03:58:17;27.52;;;8.05;;
41233;SDS011;26968;42.686;23.352;2023-09-30T04:00:44;20.63;;;8.38;;
41233;SDS011;26968;42.686;23.352;2023-09-30T04:03:10;21.40;;;7.97;;
41233;SDS011;26968;42.686;23.352;2023-09-30T04:05:35;21.08;;;8.23;;
41233;SDS011;26968;42.686;23.352;2023-09-30T04:08:02;20.02;;;8.68;;
41233;SDS011;26968;42.686;23.352;2023-09-30T04:10:28;26.30;;;8.65;;
41233;SDS011;26968;42.686;23.352;2023-09-30T04:12:55;18.10;;;7.38;;
41233;SDS011;26968;42.686;23.352;2023-09-30T04:15:21;28.55;;;8.23;;
41233;SDS011;26968;42.686;23.352;2023-09-30T04:17:48;19.23;;;8.07;;
41233;SDS011;26968;42.686;23.352;2023-09-30T04:20:14;20.38;;;6.72;;
41233;SDS011;26968;42.686;23.352;2023-09-30T04:22:48;17.48;;;6.55;;
41233;SDS011;26968;42.686;23.352;2023-09-30T04:25:15;17.33;;;6.95;;
41233;SDS011;26968;42.686;23.352;2023-09-30T04:27:44;19.55;;;7.03;;
41233;SDS011;26968;42.686;23.352;2023-09-30T04:30:13;16.33;;;7.15;;
41233;SDS011;26968;42.686;23.352;2023-09-30T04:32:40;16.00;;;7.10;;
41233;SDS011;26968;42.686;23.352;2023-09-30T04:35:06;19.75;;;7.05;;
41233;SDS011;26968;42.686;23.352;2023-09-30T04:37:35;21.33;;;7.55;;
41233;SDS011;26968;42.686;23.352;2023-09-30T04:40:04;17.30;;;7.30;;
41233;SDS011;26968;42.686;23.352;2023-09-30T04:42:41;15.27;;;6.68;;
41233;SDS011;26968;42.686;23.352;2023-09-30T04:45:08;20.73;;;7.35;;
41233;SDS011;26968;42.686;23.352;2023-09-30T04:47:35;18.20;;;6.60;;
41233;SDS011;26968;42.686;23.352;2023-09-30T04:50:00;17.60;;;6.63;;
41233;SDS011;26968;42.686;23.352;2023-09-30T04:52:32;13.32;;;6.95;;
41233;SDS011;26968;42.686;23.352;2023-09-30T04:54:58;25.30;;;7.25;;
41233;SDS011;26968;42.686;23.352;2023-09-30T04:57:25;15.45;;;7.43;;
41233;SDS011;26968;42.686;23.352;2023-09-30T04:59:51;14.55;;;6.72;;
41233;SDS011;26968;42.686;23.352;2023-09-30T05:02:16;16.80;;;6.95;;
41233;SDS011;26968;42.686;23.352;2023-09-30T05:04:42;17.40;;;6.60;;
41233;SDS011;26968;42.686;23.352;2023-09-30T05:07:10;14.10;;;7.53;;
41233;SDS011;26968;42.686;23.352;2023-09-30T05:09:38;16.92;;;6.88;;
41233;SDS011;26968;42.686;23.352;2023-09-30T05:12:04;19.98;;;7.50;;
41233;SDS011;26968;42.686;23.352;2023-09-30T05:14:30;14.65;;;6.28;;
41233;SDS011;26968;42.686;23.352;2023-09-30T05:16:56;20.52;;;6.95;;
41233;SDS011;26968;42.686;23.352;2023-09-30T05:19:22;24.48;;;6.30;;
41233;SDS011;26968;42.686;23.352;2023-09-30T05:21:47;20.27;;;6.85;;
41233;SDS011;26968;42.686;23.352;2023-09-30T05:24:14;14.15;;;6.50;;
41233;SDS011;26968;42.686;23.352;2023-09-30T05:26:40;14.02;;;5.95;;
41233;SDS011;26968;42.686;23.352;2023-09-30T05:29:05;16.58;;;7.97;;
41233;SDS011;26968;42.686;23.352;2023-09-30T05:31:32;21.08;;;7.13;;
41233;SDS011;26968;42.686;23.352;2023-09-30T05:33:58;19.38;;;6.72;;
41233;SDS011;26968;42.686;23.352;2023-09-30T05:36:23;15.70;;;7.07;;
41233;SDS011;26968;42.686;23.352;2023-09-30T05:38:49;29.55;;;8.02;;
41233;SDS011;26968;42.686;23.352;2023-09-30T05:41:14;26.63;;;7.35;;
41233;SDS011;26968;42.686;23.352;2023-09-30T05:43:40;14.52;;;7.97;;
41233;SDS011;26968;42.686;23.352;2023-09-30T05:46:08;27.88;;;7.65;;
41233;SDS011;26968;42.686;23.352;2023-09-30T05:48:34;14.40;;;7.95;;
41233;SDS011;26968;42.686;23.352;2023-09-30T05:50:59;15.88;;;7.00;;
41233;SDS011;26968;42.686;23.352;2023-09-30T05:53:24;16.00;;;8.07;;
41233;SDS011;26968;42.686;23.352;2023-09-30T05:55:50;19.50;;;8.50;;
41233;SDS011;26968;42.686;23.352;2023-09-30T05:58:16;22.85;;;7.93;;
41233;SDS011;26968;42.686;23.352;2023-09-30T06:00:42;21.67;;;7.95;;
41233;SDS011;26968;42.686;23.352;2023-09-30T06:03:08;23.27;;;7.85;;
41233;SDS011;26968;42.686;23.352;2023-09-30T06:05:38;31.63;;;8.95;;
41233;SDS011;26968;42.686;23.352;2023-09-30T06:08:08;31.58;;;8.18;;
41233;SDS011;26968;42.686;23.352;2023-09-30T06:10:39;20.83;;;8.43;;
41233;SDS011;26968;42.686;23.352;2023-09-30T06:13:08;22.38;;;8.18;;
41233;SDS011;26968;42.686;23.352;2023-09-30T06:15:36;22.15;;;8.23;;
41233;SDS011;26968;42.686;23.352;2023-09-30T06:18:05;16.52;;;7.53;;
41233;SDS011;26968;42.686;23.352;2023-09-30T06:20:31;21.63;;;8.18;;
41233;SDS011;26968;42.686;23.352;2023-09-30T06:22:56;22.30;;;8.68;;
41233;SDS011;26968;42.686;23.352;2023-09-30T06:25:22;25.05;;;7.55;;
41233;SDS011;26968;42.686;23.352;2023-09-30T06:27:50;20.05;;;8.55;;
41233;SDS011;26968;42.686;23.352;2023-09-30T06:30:16;20.15;;;7.65;;
41233;SDS011;26968;42.686;23.352;2023-09-30T06:32:47;26.75;;;8.75;;
41233;SDS011;26968;42.686;23.352;2023-09-30T06:35:13;26.38;;;8.20;;
41233;SDS011;26968;42.686;23.352;2023-09-30T06:37:39;23.15;;;8.18;;
41233;SDS011;26968;42.686;23.352;2023-09-30T06:40:06;25.58;;;7.85;;
41233;SDS011;26968;42.686;23.352;2023-09-30T06:42:33;25.25;;;8.70;;
41233;SDS011;26968;42.686;23.352;2023-09-30T06:45:00;14.73;;;7.32;;
41233;SDS011;26968;42.686;23.352;2023-09-30T06:47:26;15.30;;;6.45;;
41233;SDS011;26968;42.686;23.352;2023-09-30T06:49:52;16.08;;;5.95;;
41233;SDS011;26968;42.686;23.352;2023-09-30T06:52:18;20.50;;;6.40;;
41233;SDS011;26968;42.686;23.352;2023-09-30T06:54:45;17.10;;;7.50;;
41233;SDS011;26968;42.686;23.352;2023-09-30T06:57:10;16.60;;;7.50;;
41233;SDS011;26968;42.686;23.352;2023-09-30T06:59:36;17.98;;;7.13;;
41233;SDS011;26968;42.686;23.352;2023-09-30T07:02:02;21.02;;;7.63;;
41233;SDS011;26968;42.686;23.352;2023-09-30T07:04:29;23.80;;;7.05;;
41233;SDS011;26968;42.686;23.352;2023-09-30T07:06:55;20.65;;;6.25;;
41233;SDS011;26968;42.686;23.352;2023-09-30T07:09:20;12.70;;;6.43;;
41233;SDS011;26968;42.686;23.352;2023-09-30T07:11:46;14.77;;;6.50;;
41233;SDS011;26968;42.686;23.352;2023-09-30T07:14:11;16.50;;;7.07;;
41233;SDS011;26968;42.686;23.352;2023-09-30T07:16:37;20.30;;;7.63;;
41233;SDS011;26968;42.686;23.352;2023-09-30T07:19:03;17.25;;;7.70;;
41233;SDS011;26968;42.686;23.352;2023-09-30T07:21:28;19.73;;;6.38;;
41233;SDS011;26968;42.686;23.352;2023-09-30T07:23:54;19.48;;;6.80;;
41233;SDS011;26968;42.686;23.352;2023-09-30T07:26:23;21.40;;;6.75;;
41233;SDS011;26968;42.686;23.352;2023-09-30T07:28:50;21.23;;;6.90;;
41233;SDS011;26968;42.686;23.352;2023-09-30T07:31:15;25.17;;;7.38;;
41233;SDS011;26968;42.686;23.352;2023-09-30T07:33:41;24.40;;;7.45;;
41233;SDS011;26968;42.686;23.352;2023-09-30T07:36:06;16.38;;;7.22;;
41233;SDS011;26968;42.686;23.352;2023-09-30T07:38:32;24.80;;;6.60;;
41233;SDS011;26968;42.686;23.352;2023-09-30T07:40:59;14.77;;;6.05;;
41233;SDS011;26968;42.686;23.352;2023-09-30T07:43:25;18.45;;;6.70;;
41233;SDS011;26968;42.686;23.352;2023-09-30T07:45:53;21.10;;;7.15;;
41233;SDS011;26968;42.686;23.352;2023-09-30T07:48:19;18.73;;;7.40;;
41233;SDS011;26968;42.686;23.352;2023-09-30T07:50:44;20.67;;;7.15;;
41233;SDS011;26968;42.686;23.352;2023-09-30T07:53:10;21.33;;;6.25;;
41233;SDS011;26968;42.686;23.352;2023-09-30T07:55:37;14.32;;;6.00;;
41233;SDS011;26968;42.686;23.352;2023-09-30T07:58:02;18.10;;;6.30;;
41233;SDS011;26968;42.686;23.352;2023-09-30T08:00:28;16.52;;;6.32;;
41233;SDS011;26968;42.686;23.352;2023-09-30T08:02:54;14.02;;;6.22;;
41233;SDS011;26968;42.686;23.352;2023-09-30T08:05:20;18.33;;;6.15;;
41233;SDS011;26968;42.686;23.352;2023-09-30T08:07:45;15.95;;;6.45;;
41233;SDS011;26968;42.686;23.352;2023-09-30T08:10:11;22.85;;;5.78;;
41233;SDS011;26968;42.686;23.352;2023-09-30T08:12:41;11.43;;;5.63;;
41233;SDS011;26968;42.686;23.352;2023-09-30T08:15:10;18.08;;;5.80;;
41233;SDS011;26968;42.686;23.352;2023-09-30T08:17:39;21.65;;;6.20;;
41233;SDS011;26968;42.686;23.352;2023-09-30T08:20:05;20.40;;;5.85;;
41233;SDS011;26968;42.686;23.352;2023-09-30T08:22:31;18.10;;;6.53;;
41233;SDS011;26968;42.686;23.352;2023-09-30T08:24:57;25.17;;;6.20;;
41233;SDS011;26968;42.686;23.352;2023-09-30T08:27:22;10.18;;;4.93;;
41233;SDS011;26968;42.686;23.352;2023-09-30T08:29:49;20.73;;;5.88;;
41233;SDS011;26968;42.686;23.352;2023-09-30T08:32:15;21.23;;;5.18;;
41233;SDS011;26968;42.686;23.352;2023-09-30T08:34:40;27.35;;;5.78;;
41233;SDS011;26968;42.686;23.352;2023-09-30T08:37:07;17.90;;;6.20;;
41233;SDS011;26968;42.686;23.352;2023-09-30T08:39:32;18.00;;;6.68;;
41233;SDS011;26968;42.686;23.352;2023-09-30T08:41:57;12.70;;;6.03;;
41233;SDS011;26968;42.686;23.352;2023-09-30T08:44:28;18.20;;;6.85;;
41233;SDS011;26968;42.686;23.352;2023-09-30T08:46:54;12.68;;;5.80;;
41233;SDS011;26968;42.686;23.352;2023-09-30T08:49:23;17.35;;;6.85;;
41233;SDS011;26968;42.686;23.352;2023-09-30T08:51:51;16.25;;;7.03;;
41233;SDS011;26968;42.686;23.352;2023-09-30T08:54:16;25.10;;;6.80;;
41233;SDS011;26968;42.686;23.352;2023-09-30T08:56:42;22.52;;;6.88;;
41233;SDS011;26968;42.686;23.352;2023-09-30T08:59:12;19.40;;;6.20;;
41233;SDS011;26968;42.686;23.352;2023-09-30T09:01:40;17.45;;;7.88;;
41233;SDS011;26968;42.686;23.352;2023-09-30T09:04:05;20.10;;;7.50;;
41233;SDS011;26968;42.686;23.352;2023-09-30T09:06:32;17.63;;;6.70;;
41233;SDS011;26968;42.686;23.352;2023-09-30T09:09:18;16.90;;;6.97;;
41233;SDS011;26968;42.686;23.352;2023-09-30T09:11:44;22.40;;;7.68;;
41233;SDS011;26968;42.686;23.352;2023-09-30T09:14:11;17.33;;;7.57;;
41233;SDS011;26968;42.686;23.352;2023-09-30T09:16:36;18.10;;;8.10;;
41233;SDS011;26968;42.686;23.352;2023-09-30T09:19:21;18.58;;;7.72;;
41233;SDS011;26968;42.686;23.352;2023-09-30T09:24:38;27.70;;;7.90;;
41233;SDS011;26968;42.686;23.352;2023-09-30T09:27:08;23.85;;;8.00;;
41233;SDS011;26968;42.686;23.352;2023-09-30T09:29:35;19.13;;;7.15;;
41233;SDS011;26968;42.686;23.352;2023-09-30T09:32:17;19.98;;;6.45;;
41233;SDS011;26968;42.686;23.352;2023-09-30T09:34:43;17.65;;;8.45;;
41233;SDS011;26968;42.686;23.352;2023-09-30T09:37:13;21.20;;;6.60;;
41233;SDS011;26968;42.686;23.352;2023-09-30T09:39:48;20.90;;;6.60;;
41233;SDS011;26968;42.686;23.352;2023-09-30T09:42:28;16.50;;;6.28;;
41233;SDS011;26968;42.686;23.352;2023-09-30T09:45:04;22.05;;;6.93;;
41233;SDS011;26968;42.686;23.352;2023-09-30T09:47:33;17.08;;;6.97;;
41233;SDS011;26968;42.686;23.352;2023-09-30T09:49:59;15.55;;;6.47;;
41233;SDS011;26968;42.686;23.352;2023-09-30T09:52:27;12.23;;;7.05;;
41233;SDS011;26968;42.686;23.352;2023-09-30T09:54:54;19.23;;;6.47;;
41233;SDS011;26968;42.686;23.352;2023-09-30T09:57:20;21.80;;;5.40;;
41233;SDS011;26968;42.686;23.352;2023-09-30T09:59:46;15.68;;;5.15;;
41233;SDS011;26968;42.686;23.352;2023-09-30T10:02:13;32.78;;;4.82;;
41233;SDS011;26968;42.686;23.352;2023-09-30T10:04:45;16.90;;;4.70;;
41233;SDS011;26968;42.686;23.352;2023-09-30T10:07:34;21.83;;;5.38;;
41233;SDS011;26968;42.686;23.352;2023-09-30T10:10:07;18.25;;;4.80;;
41233;SDS011;26968;42.686;23.352;2023-09-30T10:12:38;14.10;;;5.25;;
41233;SDS011;26968;42.686;23.352;2023-09-30T10:17:58;12.63;;;4.82;;
41233;SDS011;26968;42.686;23.352;2023-09-30T10:20:27;18.45;;;4.32;;
41233;SDS011;26968;42.686;23.352;2023-09-30T10:25:45;20.58;;;4.82;;
41233;SDS011;26968;42.686;23.352;2023-09-30T10:31:15;8.07;;;4.18;;
41233;SDS011;26968;42.686;23.352;2023-09-30T10:39:00;14.52;;;3.20;;
41233;SDS011;26968;42.686;23.352;2023-09-30T10:46:51;9.98;;;3.70;;
41233;SDS011;26968;42.686;23.352;2023-09-30T10:51:55;11.13;;;3.40;;
41233;SDS011;26968;42.686;23.352;2023-09-30T10:54:26;9.27;;;3.50;;
41233;SDS011;26968;42.686;23.352;2023-09-30T10:56:53;12.98;;;3.85;;
41233;SDS011;26968;42.686;23.352;2023-09-30T10:59:19;12.13;;;5.97;;
41233;SDS011;26968;42.686;23.352;2023-09-30T11:01:45;8.07;;;4.10;;
41233;SDS011;26968;42.686;23.352;2023-09-30T11:04:11;11.48;;;4.53;;
41233;SDS011;26968;42.686;23.352;2023-09-30T11:06:39;8.68;;;3.20;;
41233;SDS011;26968;42.686;23.352;2023-09-30T11:09:06;9.02;;;4.00;;
41233;SDS011;26968;42.686;23.352;2023-09-30T11:11:41;15.13;;;4.55;;
41233;SDS011;26968;42.686;23.352;2023-09-30T11:14:21;15.05;;;4.45;;
41233;SDS011;26968;42.686;23.352;2023-09-30T11:16:49;10.98;;;4.25;;
41233;SDS011;26968;42.686;23.352;2023-09-30T11:19:16;9.43;;;3.80;;
41233;SDS011;26968;42.686;23.352;2023-09-30T11:21:42;19.10;;;4.30;;
41233;SDS011;26968;42.686;23.352;2023-09-30T11:24:11;12.85;;;4.25;;
41233;SDS011;26968;42.686;23.352;2023-09-30T11:26:37;16.17;;;4.95;;
41233;SDS011;26968;42.686;23.352;2023-09-30T11:31:31;12.20;;;3.45;;
41233;SDS011;26968;42.686;23.352;2023-09-30T11:33:59;16.38;;;4.85;;
41233;SDS011;26968;42.686;23.352;2023-09-30T11:36:28;12.05;;;3.90;;
41233;SDS011;26968;42.686;23.352;2023-09-30T11:38:55;10.73;;;3.95;;
41233;SDS011;26968;42.686;23.352;2023-09-30T11:41:21;8.30;;;4.15;;
41233;SDS011;26968;42.686;23.352;2023-09-30T11:44:03;12.15;;;4.35;;
41233;SDS011;26968;42.686;23.352;2023-09-30T11:46:48;6.82;;;4.18;;
41233;SDS011;26968;42.686;23.352;2023-09-30T11:49:23;13.93;;;4.47;;
41233;SDS011;26968;42.686;23.352;2023-09-30T11:51:53;7.53;;;4.13;;
41233;SDS011;26968;42.686;23.352;2023-09-30T11:54:20;10.30;;;4.80;;
41233;SDS011;26968;42.686;23.352;2023-09-30T11:56:47;16.30;;;5.15;;
41233;SDS011;26968;42.686;23.352;2023-09-30T11:59:13;23.52;;;4.97;;
41233;SDS011;26968;42.686;23.352;2023-09-30T12:01:38;15.50;;;4.85;;
41233;SDS011;26968;42.686;23.352;2023-09-30T12:04:04;8.45;;;4.55;;
41233;SDS011;26968;42.686;23.352;2023-09-30T12:06:31;10.02;;;5.28;;
41233;SDS011;26968;42.686;23.352;2023-09-30T12:08:59;10.38;;;4.38;;
41233;SDS011;26968;42.686;23.352;2023-09-30T12:11:25;13.63;;;4.07;;
41233;SDS011;26968;42.686;23.352;2023-09-30T12:13:50;10.93;;;4.32;;
41233;SDS011;26968;42.686;23.352;2023-09-30T12:16:16;13.48;;;4.18;;
41233;SDS011;26968;42.686;23.352;2023-09-30T12:18:42;20.30;;;4.50;;
41233;SDS011;26968;42.686;23.352;2023-09-30T12:21:11;10.50;;;4.60;;
41233;SDS011;26968;42.686;23.352;2023-09-30T12:23:38;8.63;;;3.55;;
41233;SDS011;26968;42.686;23.352;2023-09-30T12:26:04;7.45;;;4.40;;
41233;SDS011;26968;42.686;23.352;2023-09-30T12:28:33;11.05;;;4.13;;
41233;SDS011;26968;42.686;23.352;2023-09-30T12:30:59;17.67;;;4.63;;
41233;SDS011;26968;42.686;23.352;2023-09-30T12:33:28;11.07;;;4.65;;
41233;SDS011;26968;42.686;23.352;2023-09-30T12:35:55;13.18;;;4.68;;
41233;SDS011;26968;42.686;23.352;2023-09-30T12:38:22;11.43;;;4.60;;
41233;SDS011;26968;42.686;23.352;2023-09-30T12:40:48;8.43;;;3.80;;
41233;SDS011;26968;42.686;23.352;2023-09-30T12:43:13;10.40;;;4.53;;
41233;SDS011;26968;42.686;23.352;2023-09-30T12:45:39;7.53;;;4.20;;
41233;SDS011;26968;42.686;23.352;2023-09-30T12:48:04;9.25;;;4.63;;
41233;SDS011;26968;42.686;23.352;2023-09-30T12:50:31;12.25;;;4.55;;
41233;SDS011;26968;42.686;23.352;2023-09-30T12:52:56;12.10;;;4.55;;
41233;SDS011;26968;42.686;23.352;2023-09-30T12:55:22;12.73;;;5.07;;
41233;SDS011;26968;42.686;23.352;2023-09-30T12:57:47;10.23;;;4.28;;
41233;SDS011;26968;42.686;23.352;2023-09-30T13:00:13;12.60;;;4.80;;
41233;SDS011;26968;42.686;23.352;2023-09-30T13:02:41;10.48;;;4.22;;
41233;SDS011;26968;42.686;23.352;2023-09-30T13:05:07;8.18;;;4.70;;
41233;SDS011;26968;42.686;23.352;2023-09-30T13:07:33;17.27;;;5.00;;
41233;SDS011;26968;42.686;23.352;2023-09-30T13:09:58;10.40;;;4.47;;
41233;SDS011;26968;42.686;23.352;2023-09-30T13:12:26;11.20;;;4.20;;
41233;SDS011;26968;42.686;23.352;2023-09-30T13:14:52;14.45;;;4.25;;
41233;SDS011;26968;42.686;23.352;2023-09-30T13:17:21;14.90;;;4.72;;
41233;SDS011;26968;42.686;23.352;2023-09-30T13:19:47;12.65;;;4.90;;
41233;SDS011;26968;42.686;23.352;2023-09-30T13:22:13;11.63;;;4.57;;
41233;SDS011;26968;42.686;23.352;2023-09-30T13:24:38;13.43;;;4.38;;
41233;SDS011;26968;42.686;23.352;2023-09-30T13:27:05;12.80;;;4.43;;
41233;SDS011;26968;42.686;23.352;2023-09-30T13:29:31;13.13;;;4.43;;
41233;SDS011;26968;42.686;23.352;2023-09-30T13:31:56;11.80;;;4.35;;
41233;SDS011;26968;42.686;23.352;2023-09-30T13:34:26;23.55;;;5.50;;
41233;SDS011;26968;42.686;23.352;2023-09-30T13:36:54;12.45;;;5.25;;
41233;SDS011;26968;42.686;23.352;2023-09-30T13:39:21;17.85;;;4.88;;
41233;SDS011;26968;42.686;23.352;2023-09-30T13:41:46;14.82;;;4.38;;
41233;SDS011;26968;42.686;23.352;2023-09-30T13:44:12;7.78;;;4.15;;
41233;SDS011;26968;42.686;23.352;2023-09-30T13:46:38;9.05;;;4.53;;
41233;SDS011;26968;42.686;23.352;2023-09-30T13:49:04;16.25;;;4.70;;
41233;SDS011;26968;42.686;23.352;2023-09-30T13:51:30;7.20;;;4.60;;
41233;SDS011;26968;42.686;23.352;2023-09-30T13:53:55;11.38;;;4.75;;
41233;SDS011;26968;42.686;23.352;2023-09-30T13:56:21;10.80;;;4.57;;
41233;SDS011;26968;42.686;23.352;2023-09-30T13:58:47;12.38;;;4.38;;
41233;SDS011;26968;42.686;23.352;2023-09-30T14:01:14;19.98;;;5.15;;
41233;SDS011;26968;42.686;23.352;2023-09-30T14:03:39;7.80;;;4.55;;
41233;SDS011;26968;42.686;23.352;2023-09-30T14:06:12;15.70;;;4.53;;
41233;SDS011;26968;42.686;23.352;2023-09-30T14:08:41;10.07;;;5.15;;
41233;SDS011;26968;42.686;23.352;2023-09-30T14:11:09;10.30;;;4.47;;
41233;SDS011;26968;42.686;23.352;2023-09-30T14:13:37;10.63;;;4.35;;
41233;SDS011;26968;42.686;23.352;2023-09-30T14:16:04;10.65;;;4.40;;
41233;SDS011;26968;42.686;23.352;2023-09-30T14:18:29;14.05;;;4.45;;
41233;SDS011;26968;42.686;23.352;2023-09-30T14:20:55;13.38;;;4.30;;
41233;SDS011;26968;42.686;23.352;2023-09-30T14:23:20;8.05;;;4.03;;
41233;SDS011;26968;42.686;23.352;2023-09-30T14:25:46;9.88;;;4.22;;
41233;SDS011;26968;42.686;23.352;2023-09-30T14:28:12;12.63;;;3.72;;
41233;SDS011;26968;42.686;23.352;2023-09-30T14:30:38;8.65;;;4.18;;
41233;SDS011;26968;42.686;23.352;2023-09-30T14:33:04;9.45;;;3.80;;
41233;SDS011;26968;42.686;23.352;2023-09-30T14:35:29;9.85;;;3.95;;
41233;SDS011;26968;42.686;23.352;2023-09-30T14:37:57;12.77;;;4.00;;
41233;SDS011;26968;42.686;23.352;2023-09-30T14:40:23;11.13;;;3.95;;
41233;SDS011;26968;42.686;23.352;2023-09-30T14:42:48;12.35;;;3.58;;
41233;SDS011;26968;42.686;23.352;2023-09-30T14:45:14;20.55;;;4.15;;
41233;SDS011;26968;42.686;23.352;2023-09-30T14:47:39;9.00;;;4.20;;
41233;SDS011;26968;42.686;23.352;2023-09-30T14:50:08;11.40;;;3.70;;